createdAt,value
2018-06-23T08:01:59.496Z,99.99
2018-06-23T08:03:21.572Z,99.99
2018-06-23T08:04:43.464Z,99.99
2018-06-23T08:06:05.526Z,99.99
2018-06-23T08:07:27.611Z,99.99
2018-06-23T08:08:49.408Z,99.99
2018-06-23T08:10:11.476Z,99.99
2018-06-23T08:11:33.549Z,99.99
2018-06-23T08:12:55.979Z,99.99
2018-06-23T08:14:18.034Z,99.99
2018-06-23T08:15:40.109Z,99.99
2018-06-23T08:17:02.177Z,99.99
2018-06-23T08:18:24.032Z,99.99
2018-06-23T08:19:45.311Z,99.99
2018-06-23T08:21:07.101Z,99.99
2018-06-23T08:22:29.160Z,99.99
2018-06-23T08:23:51.210Z,99.99
2018-06-23T08:25:13.296Z,98.77
2018-06-23T08:26:35.550Z,98.38
2018-06-23T08:27:58.130Z,97.66
2018-06-23T08:29:19.916Z,96.94
2018-06-23T08:30:41.987Z,96.85
2018-06-23T08:32:04.131Z,96.42
2018-06-23T08:33:26.009Z,98.48
2018-06-23T08:34:48.123Z,98.29
2018-06-23T08:36:10.203Z,98
2018-06-23T08:37:32.254Z,97.91
2018-06-23T08:38:54.518Z,94.98
2018-06-23T08:40:16.565Z,92.57
2018-06-23T08:41:38.627Z,93.48
2018-06-23T08:43:00.175Z,91.94
2018-06-23T08:44:22.253Z,92.04
2018-06-23T08:45:44.317Z,92.61
2018-06-23T08:47:06.352Z,92.18
2018-06-23T08:48:28.414Z,92.95
2018-06-23T08:49:50.203Z,91.36
2018-06-23T08:51:11.510Z,92.03
2018-06-23T08:52:33.346Z,92.13
2018-06-23T08:53:55.408Z,94.2
2018-06-23T08:55:17.464Z,93.82
2018-06-23T08:56:39.529Z,93.15
2018-06-23T08:58:01.538Z,91.41
2018-06-23T08:59:23.614Z,91.36
2018-06-23T09:00:45.665Z,90.06
2018-06-23T09:02:07.725Z,86.45
2018-06-23T09:03:29.780Z,87.56
2018-06-23T09:04:51.842Z,90.45
2018-06-23T09:06:13.387Z,87.55
2018-06-23T09:07:35.472Z,86.98
2018-06-23T09:08:57.284Z,86.3
2018-06-23T09:10:19.072Z,84.8
2018-06-23T09:11:40.651Z,85.24
2018-06-23T09:13:02.745Z,85.39
2018-06-23T09:14:24.557Z,87.12
2018-06-23T09:15:46.644Z,85.3
2018-06-23T09:17:08.751Z,87.27
2018-06-23T09:18:30.803Z,88.04
2018-06-23T09:19:52.864Z,87.85
2018-06-23T09:21:14.917Z,86.45
2018-06-23T09:22:36.986Z,86.16
2018-06-23T09:23:59.058Z,86.01
2018-06-23T09:25:21.221Z,85.63
2018-06-23T09:26:43.588Z,89.19
2018-06-23T09:28:05.436Z,91.12
2018-06-23T09:29:27.517Z,92.52
2018-06-23T09:30:49.599Z,93.19
2018-06-23T09:32:11.433Z,94.88
2018-06-23T09:33:32.995Z,98.19
2018-06-23T09:34:55.108Z,99.99
2018-06-23T09:36:16.937Z,99.99
2018-06-23T09:37:38.759Z,99.99
2018-06-23T09:39:00.848Z,99.99
2018-06-23T09:40:22.911Z,99.99
2018-06-23T09:41:44.989Z,99.99
2018-06-23T09:43:07.046Z,99.99
2018-06-23T09:44:29.111Z,99.99
2018-06-23T09:45:51.282Z,99.99
2018-06-23T09:47:13.329Z,99.99
2018-06-23T09:48:35.392Z,99.99
2018-06-23T09:49:57.204Z,99.99
2018-06-23T09:51:19.010Z,99.99
2018-06-23T09:52:41.093Z,99.99
2018-06-23T09:54:03.170Z,99.99
2018-06-23T09:55:25.011Z,99.99
2018-06-23T09:56:47.069Z,99.99
2018-06-23T09:58:09.132Z,99.99
2018-06-23T09:59:31.240Z,99.73
2018-06-23T10:00:53.288Z,98.19
2018-06-23T10:02:15.105Z,98.58
2018-06-23T10:03:36.911Z,97.42
2018-06-23T10:04:58.984Z,97.33
2018-06-23T10:06:20.783Z,97.47
2018-06-23T10:07:42.324Z,96.94
2018-06-23T10:09:04.415Z,95.07
2018-06-23T10:10:26.235Z,95.31
2018-06-23T10:11:47.791Z,96.08
2018-06-23T10:13:09.858Z,96.56
2018-06-23T10:14:31.649Z,98.39
2018-06-23T10:15:53.704Z,98.05
2018-06-23T10:17:15.523Z,97.28
2018-06-23T10:18:37.593Z,97.86
2018-06-23T10:19:59.393Z,94.83
2018-06-23T10:21:21.531Z,95.89
2018-06-23T10:22:43.756Z,97.76
2018-06-23T10:24:05.335Z,98.82
2018-06-23T10:25:26.873Z,99.99
2018-06-23T10:26:48.409Z,99.99
2018-06-23T10:28:10.239Z,99.99
2018-06-23T10:29:32.306Z,99.99
2018-06-23T10:30:53.853Z,99.99
2018-06-23T10:32:15.943Z,99.99
2018-06-23T10:33:38.030Z,99.99
2018-06-23T10:35:00.096Z,99.99
2018-06-23T10:36:22.164Z,99.99
2018-06-23T10:37:44.230Z,99.99
2018-06-23T10:39:06.375Z,99.73
2018-06-23T10:40:27.922Z,97.86
2018-06-23T10:41:49.727Z,95.89
2018-06-23T10:43:11.552Z,95.74
2018-06-23T10:44:33.599Z,97.67
2018-06-23T10:45:55.394Z,98.87
2018-06-23T10:47:17.256Z,99.64
2018-06-23T10:48:39.078Z,99.99
2018-06-23T10:50:01.160Z,99.99
2018-06-23T10:51:23.389Z,99.99
2018-06-23T10:52:45.221Z,99.99
2018-06-23T10:54:07.313Z,99.99
2018-06-23T10:55:29.399Z,99.99
2018-06-23T10:56:50.937Z,99.99
2018-06-23T10:58:13.016Z,99.99
2018-06-23T10:59:35.093Z,99.99
2018-06-23T11:00:56.901Z,99.99
2018-06-23T11:02:18.975Z,99.99
2018-06-23T11:03:40.806Z,99.99
2018-06-23T11:05:03.288Z,99.99
2018-06-23T11:06:25.396Z,99.99
2018-06-23T11:07:47.478Z,99.99
2018-06-23T11:09:09.289Z,99.99
2018-06-23T11:10:31.412Z,99.99
2018-06-23T11:11:53.234Z,99.78
2018-06-23T11:13:15.351Z,99.59
2018-06-23T11:14:37.464Z,99.99
2018-06-23T11:15:59.324Z,99.99
2018-06-23T11:17:21.437Z,99.99
2018-06-23T11:18:43.247Z,99.99
2018-06-23T11:20:05.120Z,99.98
2018-06-23T11:21:26.428Z,98.87
2018-06-23T11:22:48.483Z,96.94
2018-06-23T11:24:10.044Z,96.03
2018-06-23T11:25:32.597Z,94.68
2018-06-23T11:26:54.661Z,93.15
2018-06-23T11:28:16.731Z,95.26
2018-06-23T11:29:38.525Z,96.8
2018-06-23T11:31:00.342Z,95.07
2018-06-23T11:32:22.204Z,96.03
2018-06-23T11:33:44.003Z,96.75
2018-06-23T11:35:06.080Z,98
2018-06-23T11:36:28.172Z,98.72
2018-06-23T11:37:49.977Z,99.99
2018-06-23T11:39:12.049Z,99.99
2018-06-23T11:40:34.133Z,99.99
2018-06-23T11:41:56.207Z,99.99
2018-06-23T11:43:18.016Z,99.99
2018-06-23T11:44:39.814Z,99.99
2018-06-23T11:46:01.638Z,99.99
2018-06-23T11:47:23.443Z,99.99
2018-06-23T11:48:45.541Z,99.97
2018-06-23T11:50:07.375Z,99.99
2018-06-23T11:51:29.164Z,98.19
2018-06-23T11:52:50.695Z,98.53
2018-06-23T11:54:12.860Z,98.24
2018-06-23T11:55:34.911Z,98.14
2018-06-23T11:56:56.969Z,97.42
2018-06-23T11:58:18.773Z,97.52
2018-06-23T11:59:40.843Z,97.81
2018-06-23T12:01:02.909Z,98.63
2018-06-23T12:02:24.971Z,97.57
2018-06-23T12:03:47.045Z,99.4
2018-06-23T12:05:08.865Z,99.44
2018-06-23T12:06:30.676Z,97.86
2018-06-23T12:07:52.760Z,95.12
2018-06-23T12:09:14.642Z,96.42
2018-06-23T12:10:36.728Z,96.85
2018-06-23T12:11:58.810Z,96.85
2018-06-23T12:13:20.902Z,96.08
2018-06-23T12:14:42.419Z,94.93
2018-06-23T12:16:04.211Z,93.15
2018-06-23T12:17:26.063Z,93.24
2018-06-23T12:18:48.149Z,93.44
2018-06-23T12:20:10.325Z,93.73
2018-06-23T12:21:32.430Z,92.71
2018-06-23T12:22:54.489Z,92.96
2018-06-23T12:24:16.311Z,93.01
2018-06-23T12:25:38.583Z,94.78
2018-06-23T12:27:00.665Z,96.37
2018-06-23T12:28:22.727Z,97.19
2018-06-23T12:29:44.552Z,95.79
2018-06-23T12:31:06.650Z,94.06
2018-06-23T12:32:28.734Z,94.01
2018-06-23T12:33:50.562Z,93.29
2018-06-23T12:35:12.670Z,93.48
2018-06-23T12:36:34.759Z,94.83
2018-06-23T12:37:56.815Z,96.17
2018-06-23T12:39:18.883Z,97.09
2018-06-23T12:40:40.985Z,99.54
2018-06-23T12:42:02.783Z,99.99
2018-06-23T12:43:24.853Z,99.99
2018-06-23T12:44:46.948Z,99.99
2018-06-23T12:46:09.016Z,99.99
2018-06-23T12:47:30.819Z,99.99
2018-06-23T12:48:52.901Z,98.24
2018-06-23T12:50:14.735Z,97.33
2018-06-23T12:51:36.810Z,95.17
2018-06-23T12:52:58.613Z,95.84
2018-06-23T12:54:20.438Z,94.35
2018-06-23T12:55:41.984Z,93.44
2018-06-23T12:57:04.067Z,92.23
2018-06-23T12:58:26.147Z,91.41
2018-06-23T12:59:48.477Z,90.26
2018-06-23T13:01:10.296Z,91.41
2018-06-23T13:02:31.862Z,92.43
2018-06-23T13:03:53.968Z,93.44
2018-06-23T13:05:16.078Z,94.59
2018-06-23T13:06:38.255Z,95.6
2018-06-23T13:08:00.367Z,95.12
2018-06-23T13:09:22.161Z,95.4
2018-06-23T13:10:43.979Z,95.79
2018-06-23T13:12:06.041Z,97.28
2018-06-23T13:13:28.128Z,98.34
2018-06-23T13:14:50.213Z,99.99
2018-06-23T13:16:12.040Z,99.99
2018-06-23T13:17:33.866Z,99.99
2018-06-23T13:18:55.947Z,99.99
2018-06-23T13:20:17.754Z,99.99
2018-06-23T13:21:41.683Z,99.99
2018-06-23T13:23:03.511Z,99.99
2018-06-23T13:24:25.632Z,99.99
2018-06-23T13:25:47.702Z,99.99
2018-06-23T13:27:09.768Z,99.99
2018-06-23T13:28:31.596Z,99.99
2018-06-23T13:29:53.706Z,99.99
2018-06-23T13:31:15.804Z,99.99
2018-06-23T13:32:37.948Z,99.99
2018-06-23T13:34:00.261Z,99.99
2018-06-23T13:35:22.066Z,99.4
2018-06-23T13:36:44.130Z,98.91
2018-06-23T13:38:06.221Z,98.34
2018-06-23T13:39:28.387Z,97.76
2018-06-23T13:40:50.640Z,97.38
2018-06-23T13:42:12.713Z,97.71
2018-06-23T13:43:34.513Z,97.33
2018-06-23T13:44:57.113Z,97.57
2018-06-23T13:46:19.252Z,96.9
2018-06-23T13:47:40.803Z,95.65
2018-06-23T13:49:02.876Z,96.94
2018-06-23T13:50:24.684Z,97.52
2018-06-23T13:51:46.502Z,98.39
2018-06-23T13:53:08.606Z,99.06
2018-06-23T13:54:30.714Z,97.96
2018-06-23T13:55:52.787Z,98.86
2018-06-23T13:57:14.884Z,97.91
2018-06-23T13:58:36.967Z,98.39
2018-06-23T13:59:59.107Z,98.19
2018-06-23T14:01:21.225Z,99.35
2018-06-23T14:02:43.344Z,98.91
2018-06-23T14:04:05.485Z,97.96
2018-06-23T14:05:27.604Z,97.86
2018-06-23T14:06:49.463Z,96.8
2018-06-23T14:08:11.290Z,96.7
2018-06-23T14:09:32.873Z,96.22
2018-06-23T14:10:54.686Z,96.8
2018-06-23T14:12:16.534Z,97.47
2018-06-23T14:13:38.161Z,96.99
2018-06-23T14:15:00.349Z,96.51
2018-06-23T14:16:22.502Z,97.76
2018-06-23T14:17:44.408Z,95.84
2018-06-23T14:19:06.244Z,95.84
2018-06-23T14:20:28.129Z,95.45
2018-06-23T14:21:50.146Z,95.65
2018-06-23T14:23:12.427Z,97.86
2018-06-23T14:24:34.316Z,98.29
2018-06-23T14:25:56.173Z,98.58
2018-06-23T14:27:18.019Z,99.99
2018-06-23T14:28:39.573Z,99.99
2018-06-23T14:30:01.703Z,99.99
2018-06-23T14:31:23.657Z,99.99
2018-06-23T14:32:45.941Z,99.99
2018-06-23T14:34:08.084Z,99.99
2018-06-23T14:35:29.954Z,99.99
2018-06-23T14:36:52.311Z,99.99
2018-06-23T14:38:14.406Z,99.99
2018-06-23T14:39:36.489Z,99.99
2018-06-23T14:40:58.360Z,99.99
2018-06-23T14:42:20.198Z,99.49
2018-06-23T14:43:42.298Z,99.63
2018-06-23T14:45:04.411Z,98
2018-06-23T14:46:26.245Z,97.52
2018-06-23T14:47:48.342Z,99.68
2018-06-23T14:49:10.158Z,99.68
2018-06-23T14:50:31.950Z,99.92
2018-06-23T14:51:53.759Z,99.99
2018-06-23T14:53:15.857Z,99.99
2018-06-23T14:54:37.688Z,99.99
2018-06-23T14:55:59.529Z,99.92
2018-06-23T14:57:21.376Z,99.99
2018-06-23T14:58:43.459Z,99.99
2018-06-23T15:00:05.302Z,99.99
2018-06-23T15:01:27.454Z,99.99
2018-06-23T15:02:49.318Z,99.99
2018-06-23T15:04:11.194Z,99.99
2018-06-23T15:05:33.049Z,99.99
2018-06-23T15:06:55.132Z,99.99
2018-06-23T15:08:16.939Z,99.99
2018-06-23T15:09:38.743Z,99.06
2018-06-23T15:11:00.868Z,98.96
2018-06-23T15:12:22.439Z,99.54
2018-06-23T15:13:44.535Z,99.99
2018-06-23T15:15:06.613Z,99.99
2018-06-23T15:16:28.172Z,99.99
2018-06-23T15:17:49.981Z,99.99
2018-06-23T15:19:12.088Z,99.99
2018-06-23T15:20:34.153Z,99.99
2018-06-23T15:21:55.945Z,99.99
2018-06-23T15:23:18.114Z,99.99
2018-06-23T15:24:39.414Z,99.99
2018-06-23T15:26:01.489Z,99.99
2018-06-23T15:27:23.553Z,99.99
2018-06-23T15:28:45.612Z,99.99
2018-06-23T15:30:07.682Z,99.99
2018-06-23T15:31:29.231Z,99.99
2018-06-23T15:32:51.034Z,99.99
2018-06-23T15:34:12.823Z,99.99
2018-06-23T15:35:34.884Z,99.99
2018-06-23T15:36:56.477Z,99.99
2018-06-23T15:38:18.741Z,99.99
2018-06-23T15:39:40.933Z,99.99
2018-06-23T15:41:03.061Z,99.99
2018-06-23T15:42:25.156Z,99.99
2018-06-23T15:43:47.373Z,99.99
2018-06-23T15:45:09.627Z,99.99
2018-06-23T15:46:31.224Z,99.99
2018-06-23T15:47:53.052Z,99.99
2018-06-23T15:49:14.338Z,99.99
2018-06-23T15:50:36.119Z,99.99
2018-06-23T15:51:58.179Z,99.99
2018-06-23T15:53:20.094Z,99.99
2018-06-23T15:54:42.162Z,99.99
2018-06-23T15:56:03.954Z,99.99
2018-06-23T15:57:26.109Z,99.99
2018-06-23T15:58:48.166Z,99.99
2018-06-23T16:00:10.244Z,99.99
2018-06-23T16:01:31.794Z,99.99
2018-06-23T16:02:53.592Z,99.99
2018-06-23T16:04:15.663Z,99.99
2018-06-23T16:05:37.722Z,99.99
2018-06-23T16:06:59.822Z,99.99
2018-06-23T16:08:21.882Z,99.99
2018-06-23T16:09:43.969Z,99.99
2018-06-23T16:11:05.779Z,99.99
2018-06-23T16:12:27.843Z,99.99
2018-06-23T16:13:49.640Z,99.99
2018-06-23T16:15:11.706Z,99.99
2018-06-23T16:16:33.763Z,99.99
2018-06-23T16:17:55.050Z,99.99
2018-06-23T16:19:17.175Z,99.99
2018-06-23T16:20:39.097Z,99.99
2018-06-23T16:22:00.893Z,99.99
2018-06-23T16:23:22.969Z,99.99
2018-06-23T16:24:45.031Z,99.99
2018-06-23T16:26:06.844Z,99.99
2018-06-23T16:27:28.906Z,99.99
2018-06-23T16:28:50.995Z,99.99
2018-06-23T16:30:12.827Z,99.99
2018-06-23T16:31:34.384Z,99.99
2018-06-23T16:32:56.597Z,99.99
2018-06-23T16:34:18.676Z,99.99
2018-06-23T16:35:40.624Z,99.99
2018-06-23T16:37:02.704Z,99.99
2018-06-23T16:38:24.557Z,99.99
2018-06-23T16:39:46.373Z,99.99
2018-06-23T16:41:08.215Z,99.99
2018-06-23T16:42:30.296Z,99.99
2018-06-23T16:43:52.156Z,99.99
2018-06-23T16:45:14.110Z,99.99
2018-06-23T16:46:35.977Z,99.99
2018-06-23T16:47:58.111Z,99.99
2018-06-23T16:49:19.941Z,99.99
2018-06-23T16:50:41.987Z,99.99
2018-06-23T16:52:03.518Z,99.99
2018-06-23T16:53:25.314Z,99.99
2018-06-23T16:54:47.416Z,99.99
2018-06-23T16:56:09.251Z,99.99
2018-06-23T16:57:31.322Z,99.99
2018-06-23T16:58:52.881Z,99.99
2018-06-23T17:00:14.418Z,99.99
2018-06-23T17:01:36.240Z,99.99
2018-06-23T17:02:58.312Z,99.99
2018-06-23T17:04:20.148Z,99.99
2018-06-23T17:05:41.452Z,99.99
2018-06-23T17:07:03.536Z,99.99
2018-06-23T17:08:25.628Z,99.99
2018-06-23T17:09:47.675Z,99.99
2018-06-23T17:11:09.491Z,99.99
2018-06-23T17:12:30.840Z,99.99
2018-06-23T17:13:52.923Z,99.99
2018-06-23T17:15:14.823Z,99.99
2018-06-23T17:16:36.923Z,99.99
2018-06-23T17:17:58.711Z,99.99
2018-06-23T17:19:20.362Z,99.99
2018-06-23T17:20:42.641Z,99.99
2018-06-23T17:22:04.696Z,99.99
2018-06-23T17:23:26.799Z,99.99
2018-06-23T17:24:48.882Z,99.99
2018-06-23T17:26:10.970Z,99.99
2018-06-23T17:27:33.042Z,99.99
2018-06-23T17:28:55.107Z,99.99
2018-06-23T17:30:17.186Z,99.99
2018-06-23T17:31:39.253Z,99.99
2018-06-23T17:33:01.050Z,99.99
2018-06-23T17:34:22.854Z,99.99
2018-06-23T17:35:44.943Z,99.99
2018-06-23T17:37:06.759Z,99.99
2018-06-23T17:38:28.902Z,99.99
2018-06-23T17:39:51.024Z,99.99
2018-06-23T17:41:13.084Z,99.99
2018-06-23T17:42:34.625Z,99.99
2018-06-23T17:43:56.757Z,99.99
2018-06-23T17:45:18.554Z,99.99
2018-06-23T17:46:40.388Z,99.99
2018-06-23T17:48:02.456Z,99.99
2018-06-23T17:49:24.239Z,99.99
2018-06-23T17:50:46.287Z,99.99
2018-06-23T17:52:08.084Z,99.99
2018-06-23T17:53:30.152Z,99.99
2018-06-23T17:55:24.087Z,99.99
2018-06-23T17:56:45.866Z,99.99
2018-06-23T17:58:08.170Z,99.99
2018-06-23T17:59:30.034Z,99.99
2018-06-23T18:00:52.075Z,99.99
2018-06-23T18:02:14.182Z,99.99
2018-06-23T18:03:36.266Z,99.99
2018-06-23T18:04:58.078Z,99.99
2018-06-23T18:06:20.029Z,99.99
2018-06-23T18:07:41.710Z,99.99
2018-06-23T18:09:03.506Z,99.99
2018-06-23T18:10:25.288Z,99.99
2018-06-23T18:11:47.346Z,99.99
2018-06-23T18:13:09.464Z,99.99
2018-06-23T18:14:31.547Z,99.99
2018-06-23T18:15:53.595Z,99.99
2018-06-23T18:17:15.640Z,99.99
2018-06-23T18:19:09.756Z,99.99
2018-06-23T18:20:31.304Z,99.99
2018-06-23T18:21:53.364Z,99.99
2018-06-23T18:23:15.428Z,99.99
2018-06-23T18:24:37.501Z,99.99
2018-06-23T18:25:59.285Z,99.99
2018-06-23T18:27:21.344Z,99.99
2018-06-23T18:28:43.405Z,99.99
2018-06-23T18:30:05.484Z,99.99
2018-06-23T18:31:27.276Z,99.99
2018-06-23T18:32:49.175Z,99.99
2018-06-23T18:34:11.219Z,99.99
2018-06-23T18:35:33.273Z,99.99
2018-06-23T18:36:55.326Z,99.99
2018-06-23T18:38:17.389Z,99.99
2018-06-23T18:39:39.442Z,99.99
2018-06-23T18:41:00.941Z,99.99
2018-06-23T18:42:23.001Z,99.99
2018-06-23T18:43:44.788Z,99.99
2018-06-23T18:45:06.339Z,99.99
2018-06-23T18:46:27.886Z,99.99
2018-06-23T18:47:49.757Z,99.99
2018-06-23T18:49:11.801Z,99.99
2018-06-23T18:50:33.610Z,99.99
2018-06-23T18:51:55.680Z,99.99
2018-06-23T18:53:17.208Z,99.99
2018-06-23T18:54:39.022Z,99.99
2018-06-23T18:56:01.065Z,99.99
2018-06-23T18:57:22.863Z,99.99
2018-06-23T18:58:44.680Z,99.99
2018-06-23T19:00:06.800Z,99.99
2018-06-23T19:01:28.875Z,99.99
2018-06-23T19:02:50.661Z,99.99
2018-06-23T19:04:12.179Z,99.99
2018-06-23T19:05:33.979Z,99.99
2018-06-23T19:06:55.781Z,99.99
2018-06-23T19:08:17.832Z,99.99
2018-06-23T19:09:39.397Z,99.99
2018-06-23T19:11:01.197Z,99.99
2018-06-23T19:12:23.249Z,99.99
2018-06-23T19:13:45.057Z,99.99
2018-06-23T19:15:06.850Z,99.99
2018-06-23T19:16:28.615Z,99.99
2018-06-23T19:17:49.894Z,99.99
2018-06-23T19:19:11.945Z,99.99
2018-06-23T19:20:34.022Z,99.99
2018-06-23T19:21:55.813Z,99.99
2018-06-23T19:23:17.888Z,99.99
2018-06-23T19:24:39.406Z,99.99
2018-06-23T19:26:01.453Z,99.99
2018-06-23T19:27:23.513Z,99.99
2018-06-23T19:28:45.319Z,99.99
2018-06-23T19:30:07.418Z,99.99
2018-06-23T19:31:29.537Z,99.99
2018-06-23T19:32:51.315Z,99.99
2018-06-23T19:34:13.122Z,99.99
2018-06-23T19:35:34.933Z,99.99
2018-06-23T19:36:56.874Z,99.99
2018-06-23T19:38:18.921Z,99.99
2018-06-23T19:39:40.723Z,99.99
2018-06-23T19:41:02.545Z,99.99
2018-06-23T19:42:24.341Z,99.99
2018-06-23T19:43:46.378Z,99.99
2018-06-23T19:45:08.490Z,99.99
2018-06-23T19:46:30.564Z,99.99
2018-06-23T19:47:52.619Z,99.99
2018-06-23T19:49:14.411Z,99.99
2018-06-23T19:50:36.218Z,99.99
2018-06-23T19:51:58.267Z,99.99
2018-06-23T19:53:20.071Z,99.99
2018-06-23T19:54:42.226Z,99.99
2018-06-23T19:56:04.008Z,99.99
2018-06-23T19:57:26.045Z,99.99
2018-06-23T19:58:48.086Z,99.99
2018-06-23T20:00:09.700Z,99.99
2018-06-23T20:01:31.760Z,99.99
2018-06-23T20:02:53.809Z,99.99
2018-06-23T20:04:15.868Z,99.99
2018-06-23T20:05:37.777Z,99.99
2018-06-23T20:06:59.575Z,99.99
2018-06-23T20:08:21.812Z,99.99
2018-06-23T20:09:43.957Z,99.99
2018-06-23T20:11:05.764Z,99.99
2018-06-23T20:12:27.818Z,99.99
2018-06-23T20:13:49.579Z,99.99
2018-06-23T20:15:11.104Z,99.99
2018-06-23T20:16:32.382Z,99.99
2018-06-23T20:17:54.558Z,99.99
2018-06-23T20:19:16.628Z,99.99
2018-06-23T20:20:38.679Z,99.99
2018-06-23T20:22:00.745Z,99.99
2018-06-23T20:23:23.066Z,99.99
2018-06-23T20:24:45.143Z,99.99
2018-06-23T20:26:07.204Z,99.99
2018-06-23T20:27:29.393Z,99.99
2018-06-23T20:28:51.467Z,99.99
2018-06-23T20:30:13.299Z,99.99
2018-06-23T20:31:35.382Z,99.99
2018-06-23T20:32:57.471Z,99.99
2018-06-23T20:34:19.551Z,99.99
2018-06-23T20:35:41.366Z,99.99
2018-06-23T20:37:03.205Z,99.99
2018-06-23T20:38:25.042Z,99.99
2018-06-23T20:39:47.132Z,99.99
2018-06-23T20:41:08.955Z,99.99
2018-06-23T20:42:30.549Z,99.99
2018-06-23T20:43:52.444Z,99.99
2018-06-23T20:45:14.660Z,99.99
2018-06-23T20:46:36.777Z,99.99
2018-06-23T20:47:58.696Z,99.99
2018-06-23T20:49:20.879Z,99.99
2018-06-23T20:50:42.280Z,99.99
2018-06-23T20:52:03.919Z,99.99
2018-06-23T20:53:25.807Z,99.99
2018-06-23T20:54:47.707Z,99.99
2018-06-23T20:56:09.921Z,99.99
2018-06-23T20:57:32.133Z,99.99
2018-06-23T20:58:54.357Z,99.99
2018-06-23T21:00:16.531Z,99.99
2018-06-23T21:01:38.483Z,99.99
2018-06-23T21:03:00.588Z,99.99
2018-06-23T21:04:22.628Z,99.99
2018-06-23T21:05:44.877Z,99.99
2018-06-23T21:07:06.816Z,99.99
2018-06-23T21:08:29.064Z,99.99
2018-06-23T21:09:50.991Z,99.99
2018-06-23T21:11:13.170Z,99.99
2018-06-23T21:12:35.375Z,99.99
2018-06-23T21:13:57.046Z,99.99
2018-06-23T21:15:19.255Z,99.99
2018-06-23T21:16:41.445Z,99.99
2018-06-23T21:18:03.619Z,99.99
2018-06-23T21:19:25.526Z,99.99
2018-06-23T21:20:47.745Z,99.99
2018-06-23T21:22:09.687Z,99.99
2018-06-23T21:23:31.604Z,99.99
2018-06-23T21:24:53.802Z,99.99
2018-06-23T21:26:15.729Z,99.99
2018-06-23T21:27:37.890Z,99.99
2018-06-23T21:29:00.079Z,99.99
2018-06-23T21:30:21.731Z,99.99
2018-06-23T21:31:43.505Z,99.99
2018-06-23T21:33:05.676Z,99.99
2018-06-23T21:34:28.020Z,99.99
2018-06-23T21:35:50.229Z,99.99
2018-06-23T21:37:12.449Z,99.99
2018-06-23T21:38:34.313Z,99.99
2018-06-23T21:39:55.965Z,99.99
2018-06-23T21:41:17.996Z,99.99
2018-06-23T21:42:39.907Z,99.99
2018-06-23T21:44:02.166Z,99.99
2018-06-23T21:45:24.359Z,99.99
2018-06-23T21:46:46.735Z,99.99
2018-06-23T21:48:08.886Z,99.99
2018-06-23T21:49:30.741Z,99.99
2018-06-23T21:50:52.551Z,99.99
2018-06-23T21:52:14.642Z,99.99
2018-06-23T21:53:36.776Z,99.99
2018-06-23T21:54:58.869Z,99.99
2018-06-23T21:56:20.947Z,99.99
2018-06-23T21:57:43.042Z,99.99
2018-06-23T21:59:05.158Z,99.99
2018-06-23T22:00:26.986Z,99.99
2018-06-23T22:01:49.084Z,99.99
2018-06-23T22:03:11.279Z,99.99
2018-06-23T22:04:33.125Z,99.99
2018-06-23T22:05:54.947Z,99.99
2018-06-23T22:07:16.787Z,99.99
2018-06-23T22:08:38.355Z,99.99
2018-06-23T22:10:00.200Z,99.99
2018-06-23T22:11:22.278Z,99.99
2018-06-23T22:12:44.380Z,99.99
2018-06-23T22:14:06.200Z,99.99
2018-06-23T22:15:28.317Z,99.99
2018-06-23T22:16:50.142Z,99.99
2018-06-23T22:18:12.222Z,99.99
2018-06-23T22:19:34.326Z,99.99
2018-06-23T22:20:55.878Z,99.99
2018-06-23T22:22:17.908Z,99.99
2018-06-23T22:23:39.708Z,99.99
2018-06-23T22:25:01.491Z,99.99
2018-06-23T22:26:23.538Z,99.99
2018-06-23T22:27:45.588Z,99.99
2018-06-23T22:29:07.635Z,99.99
2018-06-23T22:30:29.422Z,99.99
2018-06-23T22:31:51.249Z,99.99
2018-06-23T22:33:13.288Z,99.99
2018-06-23T22:34:35.087Z,99.99
2018-06-23T22:35:56.874Z,99.99
2018-06-23T22:37:18.671Z,99.99
2018-06-23T22:38:40.719Z,99.99
2018-06-23T22:40:02.749Z,99.99
2018-06-23T22:41:24.556Z,99.99
2018-06-23T22:42:46.628Z,99.99
2018-06-23T22:44:08.650Z,99.99
2018-06-23T22:45:30.707Z,99.99
2018-06-23T22:46:52.492Z,99.99
2018-06-23T22:48:14.536Z,99.99
2018-06-23T22:49:36.579Z,99.99
2018-06-23T22:50:58.355Z,99.99
2018-06-23T22:52:20.413Z,99.99
2018-06-23T22:53:42.170Z,99.99
2018-06-23T22:55:04.239Z,99.99
2018-06-23T22:56:26.286Z,99.99
2018-06-23T22:57:48.355Z,99.99
2018-06-23T22:59:10.136Z,99.99
2018-06-23T23:00:32.189Z,99.99
2018-06-23T23:01:53.975Z,99.99
2018-06-23T23:03:16.040Z,99.99
2018-06-23T23:04:37.958Z,99.99
2018-06-23T23:06:00.062Z,99.99
2018-06-23T23:07:21.844Z,99.99
2018-06-23T23:08:43.916Z,99.99
2018-06-23T23:10:05.966Z,99.99
2018-06-23T23:11:27.998Z,99.99
2018-06-23T23:12:50.117Z,99.99
2018-06-23T23:14:12.389Z,99.99
2018-06-23T23:15:34.453Z,99.99
2018-06-23T23:16:56.504Z,99.99
2018-06-23T23:18:18.573Z,99.99
2018-06-23T23:19:39.821Z,99.99
2018-06-23T23:21:01.854Z,99.99
2018-06-23T23:22:23.884Z,99.99
2018-06-23T23:23:45.671Z,99.99
2018-06-23T23:25:07.743Z,99.99
2018-06-23T23:26:29.543Z,99.99
2018-06-23T23:27:51.590Z,99.99
2018-06-23T23:29:13.676Z,99.99
2018-06-23T23:30:35.720Z,99.99
2018-06-23T23:31:57.231Z,99.99
2018-06-23T23:33:19.008Z,99.99
2018-06-23T23:34:41.052Z,99.99
2018-06-23T23:36:03.113Z,99.99
2018-06-23T23:37:24.909Z,99.99
2018-06-23T23:38:46.958Z,99.99
2018-06-23T23:40:08.719Z,99.99
2018-06-23T23:41:30.747Z,99.99
2018-06-23T23:42:52.803Z,99.99
2018-06-23T23:44:14.830Z,99.99
2018-06-23T23:45:36.861Z,99.99
2018-06-23T23:46:58.641Z,99.99
2018-06-23T23:48:20.678Z,99.99
2018-06-23T23:49:42.738Z,99.99
2018-06-23T23:51:04.770Z,99.99
2018-06-23T23:52:26.827Z,99.99
2018-06-23T23:53:48.859Z,99.99
2018-06-23T23:55:10.915Z,99.99
2018-06-23T23:56:32.421Z,99.99
2018-06-23T23:57:54.460Z,99.99
2018-06-23T23:59:16.497Z,99.99
